sensor_id;sensor_type;location;lat;lon;timestamp;P1;durP1;ratioP1;P2;durP2;ratioP2
44366;SDS011;30086;57.660;12.000;2022-07-29T00:01:49;11.10;;;2.83;;
44366;SDS011;30086;57.660;12.000;2022-07-29T00:04:17;16.38;;;3.45;;
44366;SDS011;30086;57.660;12.000;2022-07-29T00:06:43;7.45;;;2.47;;
44366;SDS011;30086;57.660;12.000;2022-07-29T00:09:09;8.85;;;2.63;;
44366;SDS011;30086;57.660;12.000;2022-07-29T00:11:35;8.00;;;2.80;;
44366;SDS011;30086;57.660;12.000;2022-07-29T00:14:01;10.18;;;2.83;;
44366;SDS011;30086;57.660;12.000;2022-07-29T00:16:27;8.07;;;2.88;;
44366;SDS011;30086;57.660;12.000;2022-07-29T00:18:53;8.50;;;2.65;;
44366;SDS011;30086;57.660;12.000;2022-07-29T00:21:19;9.40;;;2.40;;
44366;SDS011;30086;57.660;12.000;2022-07-29T00:23:45;9.02;;;2.60;;
44366;SDS011;30086;57.660;12.000;2022-07-29T00:26:11;5.05;;;2.90;;
44366;SDS011;30086;57.660;12.000;2022-07-29T00:28:37;9.40;;;3.08;;
44366;SDS011;30086;57.660;12.000;2022-07-29T00:31:03;4.30;;;2.58;;
44366;SDS011;30086;57.660;12.000;2022-07-29T00:33:29;10.13;;;2.60;;
44366;SDS011;30086;57.660;12.000;2022-07-29T00:35:55;9.07;;;2.75;;
44366;SDS011;30086;57.660;12.000;2022-07-29T00:38:21;11.52;;;3.35;;
44366;SDS011;30086;57.660;12.000;2022-07-29T00:40:47;9.48;;;2.60;;
44366;SDS011;30086;57.660;12.000;2022-07-29T00:43:13;8.18;;;3.03;;
44366;SDS011;30086;57.660;12.000;2022-07-29T00:45:43;6.13;;;2.72;;
44366;SDS011;30086;57.660;12.000;2022-07-29T00:48:09;9.60;;;2.53;;
44366;SDS011;30086;57.660;12.000;2022-07-29T00:50:36;11.45;;;3.58;;
44366;SDS011;30086;57.660;12.000;2022-07-29T00:53:02;9.43;;;2.67;;
44366;SDS011;30086;57.660;12.000;2022-07-29T00:55:29;7.13;;;2.47;;
44366;SDS011;30086;57.660;12.000;2022-07-29T00:57:55;5.45;;;2.90;;
44366;SDS011;30086;57.660;12.000;2022-07-29T01:00:23;8.95;;;2.85;;
44366;SDS011;30086;57.660;12.000;2022-07-29T01:02:49;6.03;;;2.40;;
44366;SDS011;30086;57.660;12.000;2022-07-29T01:05:22;6.93;;;2.63;;
44366;SDS011;30086;57.660;12.000;2022-07-29T01:07:49;8.40;;;2.70;;
44366;SDS011;30086;57.660;12.000;2022-07-29T01:10:16;6.63;;;2.13;;
44366;SDS011;30086;57.660;12.000;2022-07-29T01:12:44;6.72;;;2.85;;
44366;SDS011;30086;57.660;12.000;2022-07-29T01:15:12;4.30;;;2.60;;
44366;SDS011;30086;57.660;12.000;2022-07-29T01:25:20;9.35;;;3.10;;
44366;SDS011;30086;57.660;12.000;2022-07-29T01:30:37;8.52;;;2.75;;
44366;SDS011;30086;57.660;12.000;2022-07-29T01:33:06;7.30;;;3.20;;
44366;SDS011;30086;57.660;12.000;2022-07-29T01:35:42;7.70;;;2.70;;
44366;SDS011;30086;57.660;12.000;2022-07-29T01:38:10;7.20;;;2.75;;
44366;SDS011;30086;57.660;12.000;2022-07-29T01:44:11;7.75;;;3.13;;
44366;SDS011;30086;57.660;12.000;2022-07-29T01:46:13;12.85;;;3.28;;
44366;SDS011;30086;57.660;12.000;2022-07-29T01:48:47;9.98;;;2.85;;
44366;SDS011;30086;57.660;12.000;2022-07-29T01:51:38;10.35;;;2.88;;
44366;SDS011;30086;57.660;12.000;2022-07-29T01:54:04;8.77;;;2.97;;
44366;SDS011;30086;57.660;12.000;2022-07-29T01:56:32;8.60;;;2.70;;
44366;SDS011;30086;57.660;12.000;2022-07-29T01:58:59;9.55;;;3.00;;
44366;SDS011;30086;57.660;12.000;2022-07-29T02:01:26;8.57;;;2.83;;
44366;SDS011;30086;57.660;12.000;2022-07-29T02:03:53;13.38;;;2.80;;
44366;SDS011;30086;57.660;12.000;2022-07-29T02:06:21;15.38;;;2.90;;
44366;SDS011;30086;57.660;12.000;2022-07-29T02:08:47;10.57;;;2.92;;
44366;SDS011;30086;57.660;12.000;2022-07-29T02:11:14;7.82;;;2.88;;
44366;SDS011;30086;57.660;12.000;2022-07-29T02:13:40;8.45;;;2.97;;
44366;SDS011;30086;57.660;12.000;2022-07-29T02:16:06;10.38;;;3.30;;
44366;SDS011;30086;57.660;12.000;2022-07-29T02:18:35;8.90;;;3.00;;
44366;SDS011;30086;57.660;12.000;2022-07-29T02:21:02;8.63;;;3.20;;
44366;SDS011;30086;57.660;12.000;2022-07-29T02:23:28;7.20;;;3.38;;
44366;SDS011;30086;57.660;12.000;2022-07-29T02:25:56;9.63;;;2.85;;
44366;SDS011;30086;57.660;12.000;2022-07-29T02:28:23;9.35;;;2.90;;
44366;SDS011;30086;57.660;12.000;2022-07-29T02:30:50;9.27;;;2.92;;
44366;SDS011;30086;57.660;12.000;2022-07-29T02:33:17;5.55;;;2.53;;
44366;SDS011;30086;57.660;12.000;2022-07-29T02:35:44;13.48;;;2.67;;
44366;SDS011;30086;57.660;12.000;2022-07-29T02:38:12;10.85;;;2.70;;
44366;SDS011;30086;57.660;12.000;2022-07-29T02:40:57;9.25;;;2.42;;
44366;SDS011;30086;57.660;12.000;2022-07-29T02:43:24;4.53;;;2.42;;
44366;SDS011;30086;57.660;12.000;2022-07-29T02:45:51;7.15;;;2.88;;
44366;SDS011;30086;57.660;12.000;2022-07-29T02:48:18;11.00;;;3.17;;
44366;SDS011;30086;57.660;12.000;2022-07-29T02:50:49;8.35;;;2.95;;
44366;SDS011;30086;57.660;12.000;2022-07-29T02:53:18;5.93;;;2.42;;
44366;SDS011;30086;57.660;12.000;2022-07-29T02:55:57;7.53;;;2.25;;
44366;SDS011;30086;57.660;12.000;2022-07-29T02:58:28;8.65;;;3.90;;
44366;SDS011;30086;57.660;12.000;2022-07-29T03:00:55;7.95;;;3.10;;
44366;SDS011;30086;57.660;12.000;2022-07-29T03:03:22;9.85;;;2.67;;
44366;SDS011;30086;57.660;12.000;2022-07-29T03:05:53;7.28;;;3.00;;
44366;SDS011;30086;57.660;12.000;2022-07-29T03:08:20;7.43;;;2.78;;
44366;SDS011;30086;57.660;12.000;2022-07-29T03:10:46;6.30;;;2.40;;
44366;SDS011;30086;57.660;12.000;2022-07-29T03:13:13;3.60;;;2.22;;
44366;SDS011;30086;57.660;12.000;2022-07-29T03:15:41;5.57;;;2.70;;
44366;SDS011;30086;57.660;12.000;2022-07-29T03:18:08;10.20;;;2.80;;
44366;SDS011;30086;57.660;12.000;2022-07-29T03:20:34;7.78;;;2.53;;
44366;SDS011;30086;57.660;12.000;2022-07-29T03:23:01;9.48;;;3.05;;
44366;SDS011;30086;57.660;12.000;2022-07-29T03:25:27;7.90;;;2.97;;
44366;SDS011;30086;57.660;12.000;2022-07-29T03:27:53;6.75;;;2.75;;
44366;SDS011;30086;57.660;12.000;2022-07-29T03:30:19;9.88;;;2.53;;
44366;SDS011;30086;57.660;12.000;2022-07-29T03:32:45;7.18;;;2.70;;
44366;SDS011;30086;57.660;12.000;2022-07-29T03:35:11;6.55;;;2.63;;
44366;SDS011;30086;57.660;12.000;2022-07-29T03:37:37;4.85;;;2.67;;
44366;SDS011;30086;57.660;12.000;2022-07-29T03:40:04;11.93;;;2.92;;
44366;SDS011;30086;57.660;12.000;2022-07-29T03:42:31;10.23;;;3.00;;
44366;SDS011;30086;57.660;12.000;2022-07-29T03:44:58;7.97;;;2.90;;
44366;SDS011;30086;57.660;12.000;2022-07-29T03:47:26;9.48;;;3.10;;
44366;SDS011;30086;57.660;12.000;2022-07-29T03:49:54;7.07;;;2.72;;
44366;SDS011;30086;57.660;12.000;2022-07-29T03:52:22;6.60;;;3.08;;
44366;SDS011;30086;57.660;12.000;2022-07-29T03:54:48;7.10;;;2.58;;
44366;SDS011;30086;57.660;12.000;2022-07-29T03:57:14;9.02;;;3.30;;
44366;SDS011;30086;57.660;12.000;2022-07-29T03:59:41;8.05;;;3.25;;
44366;SDS011;30086;57.660;12.000;2022-07-29T04:02:09;12.23;;;3.17;;
44366;SDS011;30086;57.660;12.000;2022-07-29T04:04:35;10.82;;;3.33;;
44366;SDS011;30086;57.660;12.000;2022-07-29T04:07:01;10.48;;;3.00;;
44366;SDS011;30086;57.660;12.000;2022-07-29T04:09:27;8.75;;;2.65;;
44366;SDS011;30086;57.660;12.000;2022-07-29T04:11:53;7.93;;;3.13;;
44366;SDS011;30086;57.660;12.000;2022-07-29T04:14:19;9.25;;;2.45;;
44366;SDS011;30086;57.660;12.000;2022-07-29T04:16:45;8.43;;;2.70;;
44366;SDS011;30086;57.660;12.000;2022-07-29T04:19:11;8.10;;;2.90;;
44366;SDS011;30086;57.660;12.000;2022-07-29T04:21:38;6.80;;;2.35;;
44366;SDS011;30086;57.660;12.000;2022-07-29T04:24:04;6.85;;;2.40;;
44366;SDS011;30086;57.660;12.000;2022-07-29T04:26:31;6.15;;;2.63;;
44366;SDS011;30086;57.660;12.000;2022-07-29T04:28:57;4.97;;;2.63;;
44366;SDS011;30086;57.660;12.000;2022-07-29T04:31:23;10.75;;;2.92;;
44366;SDS011;30086;57.660;12.000;2022-07-29T04:33:49;4.63;;;2.55;;
44366;SDS011;30086;57.660;12.000;2022-07-29T04:36:14;9.40;;;2.90;;
44366;SDS011;30086;57.660;12.000;2022-07-29T04:38:41;8.63;;;2.50;;
44366;SDS011;30086;57.660;12.000;2022-07-29T04:41:06;4.68;;;2.42;;
44366;SDS011;30086;57.660;12.000;2022-07-29T04:43:33;6.60;;;2.45;;
44366;SDS011;30086;57.660;12.000;2022-07-29T04:46:00;5.20;;;2.10;;
44366;SDS011;30086;57.660;12.000;2022-07-29T04:48:26;10.60;;;3.08;;
44366;SDS011;30086;57.660;12.000;2022-07-29T04:50:52;7.43;;;2.47;;
44366;SDS011;30086;57.660;12.000;2022-07-29T04:53:18;4.97;;;2.50;;
44366;SDS011;30086;57.660;12.000;2022-07-29T04:55:44;5.72;;;2.45;;
44366;SDS011;30086;57.660;12.000;2022-07-29T04:58:11;8.38;;;2.35;;
44366;SDS011;30086;57.660;12.000;2022-07-29T05:00:37;5.57;;;2.22;;
44366;SDS011;30086;57.660;12.000;2022-07-29T05:03:03;5.13;;;2.20;;
44366;SDS011;30086;57.660;12.000;2022-07-29T05:05:29;7.32;;;2.97;;
44366;SDS011;30086;57.660;12.000;2022-07-29T05:07:55;4.13;;;2.55;;
44366;SDS011;30086;57.660;12.000;2022-07-29T05:10:21;5.53;;;2.45;;
44366;SDS011;30086;57.660;12.000;2022-07-29T05:12:47;4.40;;;2.38;;
44366;SDS011;30086;57.660;12.000;2022-07-29T05:15:14;7.03;;;2.30;;
44366;SDS011;30086;57.660;12.000;2022-07-29T05:17:40;8.80;;;2.70;;
44366;SDS011;30086;57.660;12.000;2022-07-29T05:20:06;6.85;;;2.70;;
44366;SDS011;30086;57.660;12.000;2022-07-29T05:22:32;8.43;;;2.40;;
44366;SDS011;30086;57.660;12.000;2022-07-29T05:24:58;9.63;;;2.45;;
44366;SDS011;30086;57.660;12.000;2022-07-29T05:27:24;6.88;;;2.53;;
44366;SDS011;30086;57.660;12.000;2022-07-29T05:29:50;5.22;;;2.78;;
44366;SDS011;30086;57.660;12.000;2022-07-29T05:32:16;7.88;;;2.72;;
44366;SDS011;30086;57.660;12.000;2022-07-29T05:34:42;7.43;;;2.40;;
44366;SDS011;30086;57.660;12.000;2022-07-29T05:37:08;6.50;;;2.47;;
44366;SDS011;30086;57.660;12.000;2022-07-29T05:39:34;7.00;;;2.50;;
44366;SDS011;30086;57.660;12.000;2022-07-29T05:42:00;3.92;;;2.05;;
44366;SDS011;30086;57.660;12.000;2022-07-29T05:44:27;7.10;;;2.35;;
44366;SDS011;30086;57.660;12.000;2022-07-29T05:46:53;5.57;;;2.17;;
44366;SDS011;30086;57.660;12.000;2022-07-29T05:49:19;8.10;;;3.20;;
44366;SDS011;30086;57.660;12.000;2022-07-29T05:51:45;6.25;;;2.53;;
44366;SDS011;30086;57.660;12.000;2022-07-29T05:54:12;9.00;;;3.33;;
44366;SDS011;30086;57.660;12.000;2022-07-29T05:56:38;7.18;;;2.40;;
44366;SDS011;30086;57.660;12.000;2022-07-29T05:59:04;7.57;;;2.55;;
44366;SDS011;30086;57.660;12.000;2022-07-29T06:01:30;10.30;;;2.75;;
44366;SDS011;30086;57.660;12.000;2022-07-29T06:03:56;7.20;;;2.55;;
44366;SDS011;30086;57.660;12.000;2022-07-29T06:06:22;5.30;;;2.63;;
44366;SDS011;30086;57.660;12.000;2022-07-29T06:08:48;8.00;;;3.10;;
44366;SDS011;30086;57.660;12.000;2022-07-29T06:11:14;4.53;;;2.20;;
44366;SDS011;30086;57.660;12.000;2022-07-29T06:13:40;9.55;;;2.55;;
44366;SDS011;30086;57.660;12.000;2022-07-29T06:16:06;9.40;;;2.70;;
44366;SDS011;30086;57.660;12.000;2022-07-29T06:18:32;8.60;;;2.78;;
44366;SDS011;30086;57.660;12.000;2022-07-29T06:20:58;12.65;;;2.40;;
44366;SDS011;30086;57.660;12.000;2022-07-29T06:23:24;9.95;;;2.85;;
44366;SDS011;30086;57.660;12.000;2022-07-29T06:25:50;10.50;;;2.80;;
44366;SDS011;30086;57.660;12.000;2022-07-29T06:28:16;8.80;;;2.13;;
44366;SDS011;30086;57.660;12.000;2022-07-29T06:30:42;7.88;;;2.20;;
44366;SDS011;30086;57.660;12.000;2022-07-29T06:33:08;6.95;;;2.60;;
44366;SDS011;30086;57.660;12.000;2022-07-29T06:35:34;11.15;;;2.20;;
44366;SDS011;30086;57.660;12.000;2022-07-29T06:38:01;8.32;;;2.17;;
44366;SDS011;30086;57.660;12.000;2022-07-29T06:40:27;6.95;;;2.13;;
44366;SDS011;30086;57.660;12.000;2022-07-29T06:43:12;8.77;;;2.05;;
44366;SDS011;30086;57.660;12.000;2022-07-29T06:45:38;6.82;;;2.20;;
44366;SDS011;30086;57.660;12.000;2022-07-29T06:48:06;9.52;;;2.53;;
44366;SDS011;30086;57.660;12.000;2022-07-29T06:50:32;7.15;;;2.15;;
44366;SDS011;30086;57.660;12.000;2022-07-29T06:52:58;6.45;;;2.22;;
44366;SDS011;30086;57.660;12.000;2022-07-29T06:55:24;7.88;;;2.70;;
44366;SDS011;30086;57.660;12.000;2022-07-29T06:57:50;6.85;;;2.20;;
44366;SDS011;30086;57.660;12.000;2022-07-29T07:00:16;11.60;;;1.98;;
44366;SDS011;30086;57.660;12.000;2022-07-29T07:02:42;9.25;;;2.08;;
44366;SDS011;30086;57.660;12.000;2022-07-29T07:05:08;7.50;;;2.33;;
44366;SDS011;30086;57.660;12.000;2022-07-29T07:07:34;17.25;;;2.65;;
44366;SDS011;30086;57.660;12.000;2022-07-29T07:10:00;4.07;;;1.83;;
44366;SDS011;30086;57.660;12.000;2022-07-29T07:12:26;8.88;;;2.10;;
44366;SDS011;30086;57.660;12.000;2022-07-29T07:14:52;8.02;;;2.05;;
44366;SDS011;30086;57.660;12.000;2022-07-29T07:17:18;6.85;;;1.80;;
44366;SDS011;30086;57.660;12.000;2022-07-29T07:19:44;8.88;;;1.63;;
44366;SDS011;30086;57.660;12.000;2022-07-29T07:22:10;6.85;;;1.67;;
44366;SDS011;30086;57.660;12.000;2022-07-29T07:24:36;5.50;;;1.90;;
44366;SDS011;30086;57.660;12.000;2022-07-29T07:27:02;6.43;;;1.88;;
44366;SDS011;30086;57.660;12.000;2022-07-29T07:29:28;3.80;;;1.60;;
44366;SDS011;30086;57.660;12.000;2022-07-29T07:31:54;7.32;;;1.85;;
44366;SDS011;30086;57.660;12.000;2022-07-29T07:34:20;9.27;;;2.20;;
44366;SDS011;30086;57.660;12.000;2022-07-29T07:36:46;8.48;;;2.00;;
44366;SDS011;30086;57.660;12.000;2022-07-29T07:39:12;5.95;;;1.77;;
44366;SDS011;30086;57.660;12.000;2022-07-29T07:41:38;4.43;;;1.70;;
44366;SDS011;30086;57.660;12.000;2022-07-29T07:44:04;6.53;;;1.85;;
44366;SDS011;30086;57.660;12.000;2022-07-29T07:46:31;6.22;;;1.92;;
44366;SDS011;30086;57.660;12.000;2022-07-29T07:48:57;6.40;;;2.17;;
44366;SDS011;30086;57.660;12.000;2022-07-29T07:51:23;6.93;;;1.77;;
44366;SDS011;30086;57.660;12.000;2022-07-29T07:53:49;7.22;;;1.55;;
44366;SDS011;30086;57.660;12.000;2022-07-29T07:56:15;3.22;;;1.50;;
44366;SDS011;30086;57.660;12.000;2022-07-29T07:58:41;4.07;;;1.83;;
44366;SDS011;30086;57.660;12.000;2022-07-29T08:01:08;6.75;;;1.98;;
44366;SDS011;30086;57.660;12.000;2022-07-29T08:03:34;4.88;;;1.75;;
44366;SDS011;30086;57.660;12.000;2022-07-29T08:06:00;5.57;;;1.58;;
44366;SDS011;30086;57.660;12.000;2022-07-29T08:08:26;5.78;;;1.88;;
44366;SDS011;30086;57.660;12.000;2022-07-29T08:10:52;7.85;;;1.92;;
44366;SDS011;30086;57.660;12.000;2022-07-29T08:13:21;6.35;;;1.75;;
44366;SDS011;30086;57.660;12.000;2022-07-29T08:15:48;5.28;;;1.92;;
44366;SDS011;30086;57.660;12.000;2022-07-29T08:18:22;3.83;;;1.42;;
44366;SDS011;30086;57.660;12.000;2022-07-29T08:20:49;4.20;;;1.50;;
44366;SDS011;30086;57.660;12.000;2022-07-29T08:23:15;7.85;;;1.70;;
44366;SDS011;30086;57.660;12.000;2022-07-29T08:25:41;7.68;;;1.98;;
44366;SDS011;30086;57.660;12.000;2022-07-29T08:28:07;4.60;;;1.70;;
44366;SDS011;30086;57.660;12.000;2022-07-29T08:30:34;10.85;;;2.10;;
44366;SDS011;30086;57.660;12.000;2022-07-29T08:33:00;5.43;;;1.50;;
44366;SDS011;30086;57.660;12.000;2022-07-29T08:35:26;5.35;;;1.83;;
44366;SDS011;30086;57.660;12.000;2022-07-29T08:37:52;3.28;;;1.25;;
44366;SDS011;30086;57.660;12.000;2022-07-29T08:40:19;4.47;;;1.92;;
44366;SDS011;30086;57.660;12.000;2022-07-29T08:42:45;4.20;;;1.75;;
44366;SDS011;30086;57.660;12.000;2022-07-29T08:45:11;11.63;;;1.70;;
44366;SDS011;30086;57.660;12.000;2022-07-29T08:47:40;4.82;;;1.58;;
44366;SDS011;30086;57.660;12.000;2022-07-29T08:50:08;4.85;;;1.40;;
44366;SDS011;30086;57.660;12.000;2022-07-29T08:52:37;6.28;;;1.60;;
44366;SDS011;30086;57.660;12.000;2022-07-29T08:55:04;6.40;;;2.05;;
44366;SDS011;30086;57.660;12.000;2022-07-29T08:57:31;9.10;;;1.85;;
44366;SDS011;30086;57.660;12.000;2022-07-29T08:59:58;6.43;;;1.77;;
44366;SDS011;30086;57.660;12.000;2022-07-29T09:02:27;4.93;;;1.70;;
44366;SDS011;30086;57.660;12.000;2022-07-29T09:04:54;6.78;;;1.67;;
44366;SDS011;30086;57.660;12.000;2022-07-29T09:07:22;4.70;;;1.40;;
44366;SDS011;30086;57.660;12.000;2022-07-29T09:09:48;3.92;;;1.83;;
44366;SDS011;30086;57.660;12.000;2022-07-29T09:12:14;5.10;;;1.40;;
44366;SDS011;30086;57.660;12.000;2022-07-29T09:14:41;6.57;;;1.98;;
44366;SDS011;30086;57.660;12.000;2022-07-29T09:17:07;4.72;;;1.60;;
44366;SDS011;30086;57.660;12.000;2022-07-29T09:19:34;2.67;;;1.52;;
44366;SDS011;30086;57.660;12.000;2022-07-29T09:22:04;6.30;;;1.73;;
44366;SDS011;30086;57.660;12.000;2022-07-29T09:24:43;7.63;;;1.65;;
44366;SDS011;30086;57.660;12.000;2022-07-29T09:29:35;3.10;;;1.73;;
44366;SDS011;30086;57.660;12.000;2022-07-29T09:32:05;4.68;;;1.33;;
44366;SDS011;30086;57.660;12.000;2022-07-29T09:34:31;3.92;;;1.38;;
44366;SDS011;30086;57.660;12.000;2022-07-29T09:36:59;4.72;;;1.63;;
44366;SDS011;30086;57.660;12.000;2022-07-29T09:41:53;5.50;;;1.60;;
44366;SDS011;30086;57.660;12.000;2022-07-29T09:44:20;5.30;;;1.40;;
44366;SDS011;30086;57.660;12.000;2022-07-29T09:46:57;3.65;;;1.55;;
44366;SDS011;30086;57.660;12.000;2022-07-29T09:49:25;4.95;;;1.60;;
44366;SDS011;30086;57.660;12.000;2022-07-29T09:52:04;3.67;;;1.48;;
44366;SDS011;30086;57.660;12.000;2022-07-29T09:54:31;5.55;;;1.95;;
44366;SDS011;30086;57.660;12.000;2022-07-29T09:57:07;4.43;;;1.63;;
44366;SDS011;30086;57.660;12.000;2022-07-29T09:59:37;3.00;;;1.30;;
44366;SDS011;30086;57.660;12.000;2022-07-29T10:02:13;1.48;;;0.60;;
44366;SDS011;30086;57.660;12.000;2022-07-29T10:04:41;4.63;;;1.38;;
44366;SDS011;30086;57.660;12.000;2022-07-29T10:07:07;6.78;;;1.90;;
44366;SDS011;30086;57.660;12.000;2022-07-29T10:09:33;5.60;;;1.70;;
44366;SDS011;30086;57.660;12.000;2022-07-29T10:12:33;5.65;;;1.52;;
44366;SDS011;30086;57.660;12.000;2022-07-29T10:14:52;5.03;;;1.70;;
44366;SDS011;30086;57.660;12.000;2022-07-29T10:17:19;4.10;;;2.80;;
44366;SDS011;30086;57.660;12.000;2022-07-29T10:19:46;4.03;;;1.45;;
44366;SDS011;30086;57.660;12.000;2022-07-29T10:22:13;2.45;;;1.05;;
44366;SDS011;30086;57.660;12.000;2022-07-29T10:24:39;2.90;;;1.50;;
44366;SDS011;30086;57.660;12.000;2022-07-29T10:27:07;4.13;;;1.38;;
44366;SDS011;30086;57.660;12.000;2022-07-29T10:29:33;5.75;;;1.23;;
44366;SDS011;30086;57.660;12.000;2022-07-29T10:32:12;5.57;;;1.60;;
44366;SDS011;30086;57.660;12.000;2022-07-29T10:37:31;2.65;;;1.30;;
44366;SDS011;30086;57.660;12.000;2022-07-29T10:42:25;5.10;;;1.92;;
44366;SDS011;30086;57.660;12.000;2022-07-29T10:44:53;5.40;;;2.03;;
44366;SDS011;30086;57.660;12.000;2022-07-29T10:47:20;3.83;;;1.40;;
44366;SDS011;30086;57.660;12.000;2022-07-29T10:49:56;4.47;;;1.90;;
44366;SDS011;30086;57.660;12.000;2022-07-29T10:52:23;4.90;;;2.08;;
44366;SDS011;30086;57.660;12.000;2022-07-29T10:54:52;4.85;;;1.77;;
44366;SDS011;30086;57.660;12.000;2022-07-29T10:57:25;4.82;;;1.70;;
44366;SDS011;30086;57.660;12.000;2022-07-29T11:05:07;4.20;;;1.67;;
44366;SDS011;30086;57.660;12.000;2022-07-29T11:07:34;5.40;;;2.17;;
44366;SDS011;30086;57.660;12.000;2022-07-29T11:15:08;3.67;;;1.67;;
44366;SDS011;30086;57.660;12.000;2022-07-29T11:22:56;3.63;;;1.30;;
44366;SDS011;30086;57.660;12.000;2022-07-29T11:25:22;3.55;;;1.52;;
44366;SDS011;30086;57.660;12.000;2022-07-29T11:27:49;3.85;;;1.33;;
44366;SDS011;30086;57.660;12.000;2022-07-29T11:30:15;5.03;;;1.38;;
44366;SDS011;30086;57.660;12.000;2022-07-29T11:32:41;6.15;;;1.60;;
44366;SDS011;30086;57.660;12.000;2022-07-29T11:35:21;7.43;;;1.52;;
44366;SDS011;30086;57.660;12.000;2022-07-29T11:40:33;5.80;;;1.50;;
44366;SDS011;30086;57.660;12.000;2022-07-29T11:42:59;5.00;;;1.35;;
44366;SDS011;30086;57.660;12.000;2022-07-29T11:45:25;3.72;;;1.35;;
44366;SDS011;30086;57.660;12.000;2022-07-29T11:47:54;8.25;;;1.95;;
44366;SDS011;30086;57.660;12.000;2022-07-29T11:50:27;5.60;;;0.90;;
44366;SDS011;30086;57.660;12.000;2022-07-29T11:52:53;5.32;;;1.20;;
44366;SDS011;30086;57.660;12.000;2022-07-29T11:55:20;6.97;;;1.67;;
44366;SDS011;30086;57.660;12.000;2022-07-29T12:00:27;3.88;;;1.52;;
44366;SDS011;30086;57.660;12.000;2022-07-29T12:02:54;5.32;;;1.58;;
44366;SDS011;30086;57.660;12.000;2022-07-29T12:05:20;8.75;;;1.95;;
44366;SDS011;30086;57.660;12.000;2022-07-29T12:07:47;3.80;;;1.40;;
44366;SDS011;30086;57.660;12.000;2022-07-29T12:10:13;4.45;;;1.58;;
44366;SDS011;30086;57.660;12.000;2022-07-29T12:12:40;4.38;;;1.70;;
44366;SDS011;30086;57.660;12.000;2022-07-29T12:15:16;3.20;;;1.10;;
44366;SDS011;30086;57.660;12.000;2022-07-29T12:17:43;2.47;;;1.00;;
44366;SDS011;30086;57.660;12.000;2022-07-29T12:20:09;4.28;;;1.50;;
44366;SDS011;30086;57.660;12.000;2022-07-29T12:22:38;4.18;;;1.80;;
44366;SDS011;30086;57.660;12.000;2022-07-29T12:25:09;2.45;;;1.23;;
44366;SDS011;30086;57.660;12.000;2022-07-29T12:27:36;5.72;;;1.60;;
44366;SDS011;30086;57.660;12.000;2022-07-29T12:30:07;4.97;;;1.50;;
44366;SDS011;30086;57.660;12.000;2022-07-29T12:35:01;3.35;;;1.40;;
44366;SDS011;30086;57.660;12.000;2022-07-29T12:37:28;2.10;;;1.23;;
44366;SDS011;30086;57.660;12.000;2022-07-29T12:39:54;5.47;;;1.42;;
44366;SDS011;30086;57.660;12.000;2022-07-29T12:42:20;2.80;;;1.52;;
44366;SDS011;30086;57.660;12.000;2022-07-29T12:44:47;8.68;;;1.67;;
44366;SDS011;30086;57.660;12.000;2022-07-29T12:47:13;3.25;;;1.70;;
44366;SDS011;30086;57.660;12.000;2022-07-29T12:49:39;2.55;;;1.38;;
44366;SDS011;30086;57.660;12.000;2022-07-29T12:52:25;4.50;;;1.40;;
44366;SDS011;30086;57.660;12.000;2022-07-29T12:54:51;6.28;;;2.10;;
44366;SDS011;30086;57.660;12.000;2022-07-29T12:57:17;5.00;;;1.70;;
44366;SDS011;30086;57.660;12.000;2022-07-29T12:59:43;6.22;;;1.48;;
44366;SDS011;30086;57.660;12.000;2022-07-29T13:02:22;6.63;;;1.48;;
44366;SDS011;30086;57.660;12.000;2022-07-29T13:04:55;7.35;;;1.70;;
44366;SDS011;30086;57.660;12.000;2022-07-29T13:07:25;3.35;;;1.50;;
44366;SDS011;30086;57.660;12.000;2022-07-29T13:09:52;4.32;;;1.92;;
44366;SDS011;30086;57.660;12.000;2022-07-29T13:12:18;4.15;;;1.30;;
44366;SDS011;30086;57.660;12.000;2022-07-29T13:14:46;2.97;;;1.50;;
44366;SDS011;30086;57.660;12.000;2022-07-29T13:17:20;7.22;;;2.00;;
44366;SDS011;30086;57.660;12.000;2022-07-29T13:19:48;4.25;;;1.13;;
44366;SDS011;30086;57.660;12.000;2022-07-29T13:22:19;3.67;;;1.40;;
44366;SDS011;30086;57.660;12.000;2022-07-29T13:24:46;7.43;;;1.90;;
44366;SDS011;30086;57.660;12.000;2022-07-29T13:27:16;5.38;;;1.40;;
44366;SDS011;30086;57.660;12.000;2022-07-29T13:29:42;2.72;;;1.20;;
44366;SDS011;30086;57.660;12.000;2022-07-29T13:32:08;4.10;;;1.58;;
44366;SDS011;30086;57.660;12.000;2022-07-29T13:34:34;6.78;;;1.70;;
44366;SDS011;30086;57.660;12.000;2022-07-29T13:37:00;4.50;;;1.70;;
44366;SDS011;30086;57.660;12.000;2022-07-29T13:39:26;3.55;;;1.27;;
44366;SDS011;30086;57.660;12.000;2022-07-29T13:41:52;2.92;;;1.30;;
44366;SDS011;30086;57.660;12.000;2022-07-29T13:44:18;5.13;;;1.00;;
44366;SDS011;30086;57.660;12.000;2022-07-29T13:46:44;3.55;;;1.23;;
44366;SDS011;30086;57.660;12.000;2022-07-29T13:49:10;3.17;;;1.25;;
44366;SDS011;30086;57.660;12.000;2022-07-29T13:51:36;3.10;;;1.40;;
44366;SDS011;30086;57.660;12.000;2022-07-29T13:54:02;3.65;;;1.77;;
44366;SDS011;30086;57.660;12.000;2022-07-29T13:56:28;2.58;;;1.13;;
44366;SDS011;30086;57.660;12.000;2022-07-29T13:58:54;2.60;;;1.33;;
44366;SDS011;30086;57.660;12.000;2022-07-29T14:01:21;3.17;;;1.30;;
44366;SDS011;30086;57.660;12.000;2022-07-29T14:03:47;4.45;;;1.40;;
44366;SDS011;30086;57.660;12.000;2022-07-29T14:06:13;3.05;;;1.40;;
44366;SDS011;30086;57.660;12.000;2022-07-29T14:08:39;3.78;;;1.15;;
44366;SDS011;30086;57.660;12.000;2022-07-29T14:11:05;2.08;;;1.05;;
44366;SDS011;30086;57.660;12.000;2022-07-29T14:13:31;4.07;;;1.30;;
44366;SDS011;30086;57.660;12.000;2022-07-29T14:15:58;3.80;;;1.33;;
44366;SDS011;30086;57.660;12.000;2022-07-29T14:18:24;4.68;;;1.20;;
44366;SDS011;30086;57.660;12.000;2022-07-29T14:20:50;3.22;;;1.00;;
44366;SDS011;30086;57.660;12.000;2022-07-29T14:23:16;4.97;;;1.35;;
44366;SDS011;30086;57.660;12.000;2022-07-29T14:25:42;4.30;;;1.10;;
44366;SDS011;30086;57.660;12.000;2022-07-29T14:28:08;5.28;;;1.30;;
44366;SDS011;30086;57.660;12.000;2022-07-29T14:30:34;2.88;;;1.20;;
44366;SDS011;30086;57.660;12.000;2022-07-29T14:33:00;2.58;;;1.52;;
44366;SDS011;30086;57.660;12.000;2022-07-29T14:35:26;3.97;;;1.00;;
44366;SDS011;30086;57.660;12.000;2022-07-29T14:37:52;2.17;;;1.48;;
44366;SDS011;30086;57.660;12.000;2022-07-29T14:40:19;3.50;;;1.08;;
44366;SDS011;30086;57.660;12.000;2022-07-29T14:42:45;5.93;;;1.65;;
44366;SDS011;30086;57.660;12.000;2022-07-29T14:45:11;2.28;;;1.13;;
44366;SDS011;30086;57.660;12.000;2022-07-29T14:47:37;3.80;;;1.30;;
44366;SDS011;30086;57.660;12.000;2022-07-29T14:50:04;2.80;;;1.13;;
44366;SDS011;30086;57.660;12.000;2022-07-29T14:52:30;2.55;;;1.50;;
44366;SDS011;30086;57.660;12.000;2022-07-29T14:54:56;1.95;;;1.30;;
44366;SDS011;30086;57.660;12.000;2022-07-29T14:57:22;4.00;;;1.23;;
44366;SDS011;30086;57.660;12.000;2022-07-29T14:59:48;3.22;;;1.25;;
44366;SDS011;30086;57.660;12.000;2022-07-29T15:02:14;5.50;;;1.30;;
44366;SDS011;30086;57.660;12.000;2022-07-29T15:04:40;3.42;;;1.42;;
44366;SDS011;30086;57.660;12.000;2022-07-29T15:07:06;2.63;;;1.23;;
44366;SDS011;30086;57.660;12.000;2022-07-29T15:09:33;5.93;;;1.65;;
44366;SDS011;30086;57.660;12.000;2022-07-29T15:11:59;1.92;;;1.00;;
44366;SDS011;30086;57.660;12.000;2022-07-29T15:14:25;3.33;;;1.08;;
44366;SDS011;30086;57.660;12.000;2022-07-29T15:16:51;3.38;;;1.20;;
44366;SDS011;30086;57.660;12.000;2022-07-29T15:19:17;4.80;;;1.27;;
44366;SDS011;30086;57.660;12.000;2022-07-29T15:21:44;3.65;;;1.45;;